Time;durP1;ratioP1;P1;durP2;ratioP2;P2;SDS_P1;SDS_P2;PMS_P1;PMS_P2;Temp;Humidity;BMP_temperature;BMP_pressure;BME280_temperature;BME280_humidity;BME280_pressure;Samples;Min_cycle;Max_cycle;Signal;HPM_P1;HPM_P2
2022/01/11 00:00:09;;;;;;;26.67;9.88;;;;;;;9.85;47.18;102812.63;4959183;29;20354;-67
2022/01/11 00:02:38;;;;;;;25.90;9.82;;;;;;;9.83;46.72;102819.88;4956672;29;20026;-67
2022/01/11 00:05:04;;;;;;;26.08;9.77;;;;;;;9.80;47.67;102817.34;4953935;29;20074;-66
2022/01/11 00:07:32;;;;;;;35.25;9.70;;;;;;;9.77;47.15;102822.00;4947091;29;20023;-67
2022/01/11 00:09:58;;;;;;;28.42;9.70;;;;;;;9.72;46.71;102824.88;4931280;29;20034;-66
2022/01/11 00:12:23;;;;;;;29.95;10.73;;;;;;;9.70;47.44;102828.56;4931351;29;20035;-67
2022/01/11 00:14:48;;;;;;;34.17;9.75;;;;;;;9.68;47.26;102835.81;4946581;29;20032;-67
2022/01/11 00:17:14;;;;;;;40.70;10.10;;;;;;;9.64;47.16;102834.22;4952183;29;20043;-67
2022/01/11 00:19:39;;;;;;;32.22;9.98;;;;;;;9.65;46.95;102830.59;4957672;29;20023;-66
2022/01/11 00:22:08;;;;;;;30.63;10.43;;;;;;;9.64;47.05;102835.09;4958053;29;20563;-66
2022/01/11 00:24:35;;;;;;;29.35;9.45;;;;;;;9.63;46.85;102832.50;4941130;29;20494;-66
2022/01/11 00:27:08;;;;;;;31.50;10.57;;;;;;;9.62;47.69;102844.13;4940637;29;20027;-66
2022/01/11 00:29:35;;;;;;;23.75;9.60;;;;;;;9.58;47.55;102840.72;4940954;29;20481;-66
2022/01/11 00:32:06;;;;;;;30.35;7.63;;;;;;;9.54;47.47;102833.81;4940716;29;20042;-66
2022/01/11 00:34:50;;;;;;;25.60;8.20;;;;;;;9.49;48.00;102841.16;4957682;29;20107;-66
2022/01/11 00:37:16;;;;;;;18.50;8.27;;;;;;;9.46;47.74;102841.34;4942691;29;20051;-66
2022/01/11 00:39:42;;;;;;;31.13;7.80;;;;;;;9.44;47.61;102842.31;4957411;29;20027;-66
2022/01/11 00:42:09;;;;;;;21.98;7.78;;;;;;;9.39;48.42;102839.88;4956514;28;20035;-66
2022/01/11 00:44:34;;;;;;;16.98;7.85;;;;;;;9.37;47.20;102836.41;4957809;29;20023;-66
2022/01/11 00:46:59;;;;;;;25.92;7.95;;;;;;;9.34;47.05;102842.78;4958503;28;20038;-66
2022/01/11 00:49:25;;;;;;;37.70;8.45;;;;;;;9.30;48.09;102851.88;4958387;29;20058;-67
2022/01/11 00:51:50;;;;;;;36.10;7.90;;;;;;;9.24;47.17;102845.94;4958058;29;20499;-67
2022/01/11 00:54:16;;;;;;;37.08;7.70;;;;;;;9.18;47.41;102857.78;4925247;29;20061;-66
2022/01/11 00:56:41;;;;;;;43.95;8.48;;;;;;;9.12;47.97;102851.84;4940699;29;20030;-67
2022/01/11 00:59:06;;;;;;;31.00;8.82;;;;;;;9.10;47.59;102851.06;4957858;29;20034;-67
2022/01/11 01:01:37;;;;;;;19.95;8.32;;;;;;;9.07;47.59;102848.53;4957711;29;20064;-67
2022/01/11 01:04:03;;;;;;;37.50;8.43;;;;;;;9.06;47.49;102852.13;4958122;29;20027;-66
2022/01/11 01:06:29;;;;;;;25.60;7.72;;;;;;;9.06;47.68;102847.66;4957900;29;20498;-67
2022/01/11 01:08:54;;;;;;;21.30;6.75;;;;;;;9.06;46.93;102844.09;4957712;29;20031;-66
2022/01/11 01:11:19;;;;;;;21.40;6.45;;;;;;;9.03;47.04;102842.44;4957805;29;20476;-65
2022/01/11 01:13:45;;;;;;;28.80;7.55;;;;;;;8.99;47.27;102840.00;4957719;29;20878;-67
2022/01/11 01:16:10;;;;;;;21.80;7.05;;;;;;;8.95;47.50;102838.38;4957552;29;20066;-67
2022/01/11 01:18:36;;;;;;;28.05;7.63;;;;;;;8.90;47.73;102840.41;4940517;29;20451;-66
2022/01/11 01:21:02;;;;;;;32.00;7.78;;;;;;;8.88;47.61;102847.63;4957868;29;20023;-66
2022/01/11 01:23:27;;;;;;;18.48;6.05;;;;;;;8.86;47.32;102854.81;4940256;29;20121;-67
2022/01/11 01:25:53;;;;;;;34.65;6.38;;;;;;;8.83;47.40;102857.63;4957450;29;20059;-66
2022/01/11 01:28:18;;;;;;;32.13;7.32;;;;;;;8.82;47.82;102861.25;4957552;29;20059;-65
2022/01/11 01:30:44;;;;;;;18.20;6.00;;;;;;;8.81;47.50;102871.06;4957293;29;20429;-66
2022/01/11 01:33:09;;;;;;;29.17;8.75;;;;;;;8.84;48.10;102875.41;4957282;29;20031;-67
2022/01/11 01:35:43;;;;;;;18.30;7.72;;;;;;;8.87;46.95;102872.59;4923892;29;20051;-67
2022/01/11 01:38:10;;;;;;;27.10;9.57;;;;;;;8.90;47.88;102885.84;4957151;29;20027;-67
2022/01/11 01:40:41;;;;;;;50.80;8.10;;;;;;;8.91;47.79;102880.41;4957188;29;20019;-66
2022/01/11 01:43:10;;;;;;;26.05;8.35;;;;;;;8.94;47.13;102877.59;4957110;29;20408;-66
2022/01/11 01:45:37;;;;;;;26.50;7.80;;;;;;;8.98;47.60;102875.66;4957189;28;20056;-67
2022/01/11 01:48:03;;;;;;;31.88;9.98;;;;;;;9.02;47.09;102886.13;4939759;29;20058;-66
2022/01/11 01:50:29;;;;;;;39.85;9.55;;;;;;;9.05;47.67;102877.09;4956952;29;20528;-66
2022/01/11 01:52:56;;;;;;;46.00;9.18;;;;;;;9.07;47.46;102877.94;4923856;29;20068;-66
2022/01/11 01:55:23;;;;;;;25.33;8.93;;;;;;;9.08;48.09;102876.97;4939691;29;20031;-66
2022/01/11 01:57:50;;;;;;;26.15;8.70;;;;;;;9.08;48.04;102882.31;4956492;29;20027;-67
2022/01/11 02:00:16;;;;;;;34.15;10.38;;;;;;;9.08;47.54;102887.66;4956894;29;20034;-66
2022/01/11 02:02:42;;;;;;;40.28;11.05;;;;;;;9.06;47.74;102890.44;4956931;29;20019;-67
2022/01/11 02:05:08;;;;;;;27.60;11.43;;;;;;;9.07;47.75;102896.66;4956438;29;20031;-66
2022/01/11 02:07:34;;;;;;;41.00;11.10;;;;;;;9.07;47.23;102896.66;4956424;29;20082;-66
2022/01/11 02:10:01;;;;;;;36.72;11.55;;;;;;;8.99;47.18;102888.94;4939152;29;20067;-66
2022/01/11 02:12:27;;;;;;;38.92;9.55;;;;;;;8.94;47.73;102898.09;4956631;29;20023;-66
2022/01/11 02:14:53;;;;;;;23.67;9.25;;;;;;;8.90;47.67;102907.22;4956412;29;20030;-67
2022/01/11 02:17:18;;;;;;;25.92;9.75;;;;;;;8.86;47.86;102905.59;4939070;29;20389;-67
2022/01/11 02:19:43;;;;;;;29.77;9.43;;;;;;;8.86;47.79;102910.94;4956410;29;20019;-66
2022/01/11 02:22:09;;;;;;;24.15;8.75;;;;;;;8.83;47.61;102911.94;4956209;29;20460;-66
2022/01/11 02:24:34;;;;;;;29.80;9.38;;;;;;;8.81;47.93;102910.28;4956601;29;20034;-66
2022/01/11 02:26:59;;;;;;;51.20;9.57;;;;;;;8.82;48.18;102909.34;4956250;29;20029;-65
2022/01/11 02:29:27;;;;;;;42.17;10.30;;;;;;;8.80;47.00;102909.41;4956286;29;20073;-66
2022/01/11 02:31:52;;;;;;;39.72;9.52;;;;;;;8.78;47.45;102913.94;4956178;29;20031;-67
2022/01/11 02:34:17;;;;;;;29.92;8.45;;;;;;;8.75;47.00;102906.06;4955991;29;20110;-66
2022/01/11 02:36:43;;;;;;;16.65;7.68;;;;;;;8.75;48.24;102906.94;4956001;29;20035;-66
2022/01/11 02:39:08;;;;;;;42.35;8.35;;;;;;;8.76;47.87;102908.69;4956023;29;20105;-66
2022/01/11 02:41:34;;;;;;;35.35;8.40;;;;;;;8.75;47.02;102916.75;4956014;29;20156;-66
2022/01/11 02:44:00;;;;;;;24.42;7.22;;;;;;;8.71;47.44;102910.66;4956011;29;20042;-67
2022/01/11 02:46:26;;;;;;;34.38;8.20;;;;;;;8.68;47.78;102915.28;4938683;29;20106;-65
2022/01/11 02:48:53;;;;;;;48.22;8.77;;;;;;;8.66;46.95;102917.13;4956026;29;20094;-66
2022/01/11 02:51:18;;;;;;;30.80;8.48;;;;;;;8.63;46.96;102918.16;4956018;29;20548;-66
2022/01/11 02:53:45;;;;;;;46.28;9.52;;;;;;;8.62;47.29;102919.09;4955577;29;20130;-66
2022/01/11 02:56:12;;;;;;;47.78;8.40;;;;;;;8.59;48.06;102916.56;4938579;29;20027;-66
2022/01/11 02:58:38;;;;;;;24.33;7.72;;;;;;;8.59;48.01;102921.03;4955962;29;20039;-66
2022/01/11 03:01:04;;;;;;;39.33;8.00;;;;;;;8.56;47.25;102926.50;4956086;29;20019;-66
2022/01/11 03:03:30;;;;;;;30.15;7.65;;;;;;;8.52;48.25;102931.09;4955787;28;20070;-66
2022/01/11 03:05:57;;;;;;;50.47;8.13;;;;;;;8.50;47.39;102926.75;4922626;29;20047;-66
2022/01/11 03:08:25;;;;;;;37.92;8.73;;;;;;;8.47;47.41;102927.75;4938465;29;20027;-66
2022/01/11 03:10:51;;;;;;;27.65;7.20;;;;;;;8.44;47.42;102924.31;4955681;29;20023;-67
2022/01/11 03:13:16;;;;;;;27.65;7.60;;;;;;;8.43;47.08;102925.28;4955611;29;20027;-65
2022/01/11 03:15:42;;;;;;;35.33;7.72;;;;;;;8.42;47.87;102928.88;4938631;29;20082;-66
2022/01/11 03:18:08;;;;;;;35.30;7.28;;;;;;;8.39;46.78;102940.53;4955476;29;20484;-66
2022/01/11 03:20:35;;;;;;;56.13;9.00;;;;;;;8.35;47.35;102940.75;4938594;29;20023;-66
2022/01/11 03:23:00;;;;;;;29.10;7.65;;;;;;;8.32;47.83;102940.88;4955698;29;20034;-66
2022/01/11 03:25:26;;;;;;;37.20;7.85;;;;;;;8.23;48.05;102937.59;4955509;29;20023;-66
2022/01/11 03:27:52;;;;;;;47.47;8.68;;;;;;;8.19;47.11;102946.66;4938758;29;20027;-66
2022/01/11 03:30:18;;;;;;;31.48;8.82;;;;;;;8.15;47.84;102942.38;4955288;29;20027;-66
2022/01/11 03:32:43;;;;;;;35.22;7.90;;;;;;;8.15;47.92;102952.19;4955340;29;20046;-66
2022/01/11 03:35:09;;;;;;;27.60;7.75;;;;;;;8.13;48.11;102952.25;4955446;29;20027;-66
2022/01/11 03:37:35;;;;;;;29.55;8.10;;;;;;;8.12;47.39;102938.97;4955654;29;20034;-66
2022/01/11 03:40:01;;;;;;;28.55;7.53;;;;;;;8.09;47.38;102942.63;4955549;29;20380;-65
2022/01/11 03:42:26;;;;;;;34.10;6.95;;;;;;;8.08;46.97;102937.34;4955651;29;20089;-66
2022/01/11 03:44:53;;;;;;;34.67;7.60;;;;;;;8.04;47.33;102941.09;4955633;29;20023;-66
2022/01/11 03:47:19;;;;;;;26.52;7.55;;;;;;;8.01;48.33;102943.88;4955348;28;20030;-65
2022/01/11 03:49:45;;;;;;;13.90;6.00;;;;;;;7.98;47.04;102949.31;4955302;29;20033;-66
2022/01/11 03:52:10;;;;;;;14.15;5.97;;;;;;;7.96;47.04;102943.16;4954912;28;20051;-67
2022/01/11 03:55:02;;;;;;;26.33;6.55;;;;;;;7.94;48.14;102940.56;4955389;29;20031;-66
2022/01/11 03:57:28;;;;;;;15.57;6.18;;;;;;;7.91;48.38;102939.81;4954253;29;20480;-66
2022/01/11 03:59:53;;;;;;;16.77;6.45;;;;;;;7.88;47.87;102950.59;4955720;29;20063;-66
2022/01/11 04:02:19;;;;;;;14.40;6.40;;;;;;;7.89;47.77;102955.00;4955216;29;20027;-67
2022/01/11 04:04:52;;;;;;;16.13;6.60;;;;;;;7.88;46.86;102958.59;4938472;29;20362;-66
2022/01/11 04:07:21;;;;;;;12.38;5.22;;;;;;;7.85;47.55;102958.72;4955769;29;20078;-66
2022/01/11 04:09:47;;;;;;;16.92;6.78;;;;;;;7.81;47.90;102955.31;4955692;29;20027;-66
2022/01/11 04:12:13;;;;;;;23.17;6.85;;;;;;;7.79;47.72;102954.50;4938016;29;20027;-67
2022/01/11 04:14:39;;;;;;;35.40;8.15;;;;;;;7.76;47.13;102951.09;4955103;29;20078;-65
2022/01/11 04:17:04;;;;;;;22.30;6.43;;;;;;;7.71;46.89;102951.25;4957201;28;20019;-65
2022/01/11 04:19:30;;;;;;;15.82;6.68;;;;;;;7.66;47.54;102945.22;4958663;29;20035;-66
2022/01/11 04:21:55;;;;;;;15.65;6.80;;;;;;;7.65;46.73;102955.97;4958616;29;20111;-67
2022/01/11 04:24:20;;;;;;;23.95;7.80;;;;;;;7.66;47.32;102963.03;4941409;29;20392;-65
2022/01/11 04:26:46;;;;;;;19.13;7.85;;;;;;;7.65;47.61;102961.31;4958620;29;20043;-66
2022/01/11 04:29:11;;;;;;;15.93;8.38;;;;;;;7.63;47.49;102962.22;4958880;29;20027;-66
2022/01/11 04:31:37;;;;;;;22.88;7.35;;;;;;;7.61;48.08;102956.09;4958668;29;20030;-66
2022/01/11 04:34:02;;;;;;;25.00;7.10;;;;;;;7.60;47.54;102959.66;4958649;29;20042;-66
2022/01/11 04:36:28;;;;;;;23.15;7.72;;;;;;;7.60;46.69;102965.00;4958328;29;20027;-66
2022/01/11 04:38:53;;;;;;;13.60;7.80;;;;;;;7.58;47.06;102964.19;4958395;29;20439;-66
2022/01/11 04:41:19;;;;;;;19.95;7.93;;;;;;;7.56;47.46;102960.72;4941463;29;20027;-66
2022/01/11 04:43:45;;;;;;;20.65;7.10;;;;;;;7.50;47.53;102963.63;4941349;29;20118;-65
2022/01/11 04:46:10;;;;;;;21.30;6.68;;;;;;;7.46;47.39;102964.66;4941189;29;20499;-66
2022/01/11 04:48:35;;;;;;;14.55;5.78;;;;;;;7.40;47.42;102961.31;4958188;29;20031;-65
2022/01/11 04:51:03;;;;;;;19.20;7.43;;;;;;;7.34;46.96;102962.41;4941067;29;20031;-66
2022/01/11 04:53:28;;;;;;;19.45;7.15;;;;;;;7.29;47.83;102969.72;4957664;28;20044;-67
2022/01/11 04:55:54;;;;;;;15.73;6.45;;;;;;;7.28;46.57;102970.66;4940832;29;20146;-65
2022/01/11 04:58:19;;;;;;;21.48;8.07;;;;;;;7.25;48.12;102961.91;4957968;29;20027;-64
2022/01/11 05:00:45;;;;;;;18.35;7.53;;;;;;;7.21;46.98;102966.47;4957960;29;20106;-66
2022/01/11 05:03:10;;;;;;;14.73;8.10;;;;;;;7.18;47.51;102965.69;4940801;29;20046;-66
2022/01/11 05:05:36;;;;;;;22.77;8.13;;;;;;;7.16;46.52;102957.78;4940760;29;20019;-66
2022/01/11 05:08:02;;;;;;;24.95;8.10;;;;;;;7.15;46.50;102966.69;4957928;29;20058;-66
2022/01/11 05:10:27;;;;;;;18.42;7.25;;;;;;;7.13;46.29;102959.66;4924855;29;20031;-65
2022/01/11 05:12:53;;;;;;;29.85;8.18;;;;;;;7.14;47.69;102964.97;4957908;29;20027;-66
2022/01/11 05:15:19;;;;;;;21.65;9.07;;;;;;;7.13;46.91;102960.53;4957507;29;20114;-65
2022/01/11 05:17:44;;;;;;;14.55;7.72;;;;;;;7.12;46.76;102966.78;4957916;29;20029;-66
2022/01/11 05:20:10;;;;;;;16.58;7.85;;;;;;;7.12;47.39;102966.78;4957626;29;20106;-66
2022/01/11 05:22:36;;;;;;;16.30;6.93;;;;;;;7.11;46.51;102965.06;4957803;29;20049;-66
2022/01/11 05:25:03;;;;;;;13.32;6.30;;;;;;;7.10;47.09;102965.97;4957641;29;20051;-66
2022/01/11 05:27:30;;;;;;;15.98;8.32;;;;;;;7.10;47.50;102965.97;4940324;29;20027;-66
2022/01/11 05:29:55;;;;;;;16.40;6.80;;;;;;;7.13;46.31;102973.00;4957092;29;20416;-65
2022/01/11 05:32:21;;;;;;;16.48;7.70;;;;;;;7.12;47.70;102966.78;4957565;29;20078;-66
2022/01/11 05:34:46;;;;;;;21.52;6.95;;;;;;;7.13;47.99;102973.00;4940650;29;20142;-65
2022/01/11 05:37:12;;;;;;;23.08;7.28;;;;;;;7.12;47.41;102966.78;4940163;29;20055;-66
2022/01/11 05:39:37;;;;;;;21.50;7.47;;;;;;;7.13;47.88;102973.00;4957326;29;20034;-66
2022/01/11 05:42:06;;;;;;;21.88;8.07;;;;;;;7.10;47.97;102976.63;4957253;29;20484;-66
2022/01/11 05:44:35;;;;;;;16.52;7.10;;;;;;;7.07;47.56;102973.19;4957582;29;20031;-66
2022/01/11 05:47:02;;;;;;;20.02;8.27;;;;;;;7.03;47.22;102972.47;4957558;28;20042;-66
2022/01/11 05:49:27;;;;;;;17.88;7.07;;;;;;;7.02;47.61;102973.38;4940079;29;20045;-66
2022/01/11 05:51:52;;;;;;;18.55;7.10;;;;;;;7.02;46.43;102986.69;4957085;28;20472;-66
2022/01/11 05:54:18;;;;;;;19.35;7.95;;;;;;;7.02;46.80;102987.56;4957103;29;20050;-66
2022/01/11 05:56:43;;;;;;;17.55;7.82;;;;;;;7.02;47.91;102981.38;4956790;29;20110;-65
2022/01/11 05:59:08;;;;;;;15.68;6.80;;;;;;;7.03;46.58;102977.78;4957214;29;20110;-66
2022/01/11 06:01:34;;;;;;;16.85;6.40;;;;;;;7.03;46.53;102983.97;4939778;29;20033;-65
2022/01/11 06:04:00;;;;;;;15.52;6.63;;;;;;;7.04;47.24;102984.84;4957096;29;20440;-66
2022/01/11 06:06:25;;;;;;;16.75;7.20;;;;;;;7.06;47.51;102984.81;4956573;29;20027;-66
2022/01/11 06:08:51;;;;;;;17.35;6.25;;;;;;;7.05;47.10;102981.25;4956815;29;20020;-66
2022/01/11 06:11:16;;;;;;;17.55;6.90;;;;;;;7.03;47.80;102977.78;4956589;29;20540;-66
2022/01/11 06:13:41;;;;;;;12.23;6.20;;;;;;;7.02;46.66;102976.91;4956466;29;20507;-66
2022/01/11 06:16:07;;;;;;;18.58;6.85;;;;;;;7.03;46.30;102988.44;4956737;29;20543;-66
2022/01/11 06:18:34;;;;;;;12.50;5.93;;;;;;;7.02;47.35;102987.56;4956898;29;20420;-66
2022/01/11 06:20:59;;;;;;;22.27;6.75;;;;;;;7.00;47.43;102985.88;4956732;29;20023;-65
2022/01/11 06:23:25;;;;;;;17.50;7.18;;;;;;;7.03;46.16;102988.44;4956524;29;20412;-66
2022/01/11 06:25:50;;;;;;;12.57;5.93;;;;;;;7.03;47.48;102978.63;4955419;29;20054;-66
2022/01/11 06:31:01;;;;;;;13.60;5.25;;;;;;;7.06;47.88;102991.00;4956537;29;20031;-65
2022/01/11 06:33:26;;;;;;;12.57;5.25;;;;;;;7.04;46.90;102985.72;4956320;29;20101;-66
2022/01/11 06:35:51;;;;;;;7.88;5.18;;;;;;;7.04;47.07;102987.50;4956046;29;20114;-66
2022/01/11 06:38:17;;;;;;;13.38;4.88;;;;;;;7.06;46.54;102983.00;4956012;28;20042;-64
2022/01/11 06:40:42;;;;;;;8.35;4.68;;;;;;;7.08;47.32;102986.47;4955862;29;20038;-64
2022/01/11 06:43:07;;;;;;;11.85;5.07;;;;;;;7.09;47.39;102996.19;4956073;29;20031;-64
2022/01/11 06:45:34;;;;;;;11.23;5.63;;;;;;;7.06;46.82;102999.00;4955926;28;20109;-65
2022/01/11 06:48:00;;;;;;;8.52;4.72;;;;;;;7.04;46.28;103000.81;4956079;29;20110;-64
2022/01/11 06:50:26;;;;;;;13.88;5.03;;;;;;;7.03;47.51;103015.09;4938735;29;20472;-64
2022/01/11 06:52:51;;;;;;;13.10;5.80;;;;;;;7.01;47.08;103008.91;4956034;29;20074;-65
2022/01/11 06:55:17;;;;;;;9.40;5.03;;;;;;;7.01;46.05;103016.91;4955782;29;20031;-66
2022/01/11 06:57:42;;;;;;;10.77;4.53;;;;;;;7.02;45.87;103013.34;4939152;29;20034;-66
2022/01/11 07:00:09;;;;;;;12.38;5.53;;;;;;;6.99;46.48;103024.09;4938740;29;20435;-66
2022/01/11 07:02:34;;;;;;;14.15;6.18;;;;;;;7.00;46.80;103031.19;4956073;29;20050;-65
2022/01/11 07:05:00;;;;;;;11.82;5.65;;;;;;;6.99;46.96;103032.09;4955598;29;20019;-66
2022/01/11 07:07:25;;;;;;;10.65;4.95;;;;;;;7.00;47.33;103041.84;4955691;29;20038;-65
2022/01/11 07:09:51;;;;;;;10.90;4.85;;;;;;;6.99;47.21;103040.97;4938583;29;20469;-66
2022/01/11 07:12:16;;;;;;;11.80;5.10;;;;;;;6.99;47.54;103042.75;4955804;29;20102;-65
2022/01/11 07:14:41;;;;;;;14.35;5.80;;;;;;;6.97;47.57;103045.47;4955731;29;20109;-66
2022/01/11 07:17:07;;;;;;;11.45;5.25;;;;;;;6.97;46.92;103039.28;4955612;29;20038;-66
2022/01/11 07:19:34;;;;;;;12.48;5.22;;;;;;;6.97;46.94;103037.47;4955901;29;20023;-66
2022/01/11 07:21:59;;;;;;;8.60;4.43;;;;;;;6.96;46.75;103041.06;4955570;29;20476;-66
2022/01/11 07:24:25;;;;;;;10.57;4.63;;;;;;;6.95;47.26;103041.13;4938575;29;20034;-65
2022/01/11 07:26:51;;;;;;;9.93;4.85;;;;;;;6.96;47.41;103046.38;4955818;29;20027;-66
2022/01/11 07:29:16;;;;;;;9.27;4.47;;;;;;;6.96;47.33;103045.50;4955488;29;20384;-66
2022/01/11 07:31:42;;;;;;;9.45;4.60;;;;;;;6.95;46.55;103052.63;4955529;29;20028;-65
2022/01/11 07:34:08;;;;;;;10.82;4.78;;;;;;;6.95;46.08;103049.97;4955686;29;20082;-66
2022/01/11 07:36:34;;;;;;;10.68;5.38;;;;;;;6.96;47.58;103053.50;4955650;29;20023;-66
2022/01/11 07:38:59;;;;;;;17.38;5.18;;;;;;;6.98;46.14;103060.53;4955457;29;20392;-66
2022/01/11 07:41:25;;;;;;;12.05;5.47;;;;;;;6.99;47.28;103059.59;4955634;29;20031;-66
2022/01/11 07:43:50;;;;;;;12.98;5.97;;;;;;;7.02;46.39;103066.63;4955666;29;20038;-66
2022/01/11 07:46:15;;;;;;;9.10;4.88;;;;;;;7.05;47.32;103066.53;4955690;28;20461;-66
2022/01/11 07:48:41;;;;;;;10.05;4.43;;;;;;;7.09;46.19;103084.13;4955236;29;20436;-66
2022/01/11 07:51:06;;;;;;;11.65;4.72;;;;;;;7.11;45.68;103082.31;4957925;28;20057;-66
2022/01/11 07:53:32;;;;;;;10.82;4.30;;;;;;;7.14;46.64;103081.34;4959146;29;20097;-66
2022/01/11 07:55:57;;;;;;;10.30;4.63;;;;;;;7.16;47.16;103087.47;4958997;29;20493;-66
2022/01/11 07:58:22;;;;;;;10.25;5.15;;;;;;;7.17;45.87;103087.44;4941691;29;20055;-66
2022/01/11 08:00:48;;;;;;;19.67;6.53;;;;;;;7.16;47.42;103096.34;4959131;29;20061;-66
2022/01/11 08:03:13;;;;;;;12.50;5.13;;;;;;;7.19;46.18;103103.38;4942040;29;20026;-66
2022/01/11 08:05:39;;;;;;;9.57;4.50;;;;;;;7.20;47.19;103111.31;4958990;29;20019;-66
2022/01/11 08:08:05;;;;;;;9.82;4.60;;;;;;;7.21;47.34;103107.72;4958932;29;20023;-65
2022/01/11 08:10:30;;;;;;;10.63;4.90;;;;;;;7.21;46.73;103099.72;4958762;29;20039;-66
2022/01/11 08:12:56;;;;;;;10.25;4.95;;;;;;;7.27;47.23;103103.97;4958825;29;20056;-66
2022/01/11 08:15:21;;;;;;;13.73;4.95;;;;;;;7.30;46.34;103115.41;4958751;29;20112;-66
2022/01/11 08:17:47;;;;;;;12.30;5.78;;;;;;;7.32;46.35;103112.69;4958688;29;20031;-66
2022/01/11 08:20:13;;;;;;;12.70;5.20;;;;;;;7.35;45.77;103108.13;4958898;29;20038;-66
2022/01/11 08:22:39;;;;;;;10.57;4.15;;;;;;;7.37;47.16;103111.59;4958703;29;20023;-66
2022/01/11 08:25:06;;;;;;;13.57;4.43;;;;;;;7.42;45.75;103112.34;4958679;29;20495;-65
2022/01/11 08:27:33;;;;;;;9.75;3.60;;;;;;;7.42;46.98;103120.34;4958275;29;20031;-65
2022/01/11 08:29:59;;;;;;;9.25;4.55;;;;;;;7.43;46.15;103121.19;4958645;29;20391;-66
2022/01/11 08:32:24;;;;;;;11.45;5.45;;;;;;;7.45;47.65;103114.88;4941407;29;20102;-66
2022/01/11 08:34:50;;;;;;;9.73;4.85;;;;;;;7.49;47.32;103124.50;4958041;29;20110;-66
2022/01/11 08:37:15;;;;;;;11.18;4.75;;;;;;;7.51;47.22;103130.66;4958163;29;20488;-66
2022/01/11 08:39:42;;;;;;;10.85;4.70;;;;;;;7.53;46.13;103134.16;4941216;29;20114;-66
2022/01/11 08:42:12;;;;;;;12.25;4.90;;;;;;;7.57;46.26;103130.44;4958170;29;20094;-67
2022/01/11 08:44:38;;;;;;;10.82;4.75;;;;;;;7.61;47.30;103126.75;4941700;29;20432;-66
2022/01/11 08:47:03;;;;;;;17.63;5.03;;;;;;;7.63;46.84;103121.38;4940918;29;20492;-66
2022/01/11 08:49:30;;;;;;;11.57;4.97;;;;;;;7.68;46.91;103114.06;4958205;29;20106;-66
2022/01/11 08:51:56;;;;;;;11.18;5.57;;;;;;;7.75;46.82;103112.06;4957869;29;20027;-66
2022/01/11 08:54:24;;;;;;;13.88;5.40;;;;;;;7.79;46.20;103108.38;4957991;29;20042;-66
2022/01/11 08:56:52;;;;;;;13.60;5.60;;;;;;;7.85;46.87;103102.78;4941189;29;20043;-66
2022/01/11 08:59:17;;;;;;;11.13;4.57;;;;;;;7.90;46.45;103095.50;4958446;29;20512;-66
2022/01/11 09:01:42;;;;;;;13.35;5.65;;;;;;;8.02;46.34;103101.25;4957146;28;20114;-66
2022/01/11 09:04:08;;;;;;;13.65;5.28;;;;;;;8.07;45.94;103093.06;4957918;29;20495;-66
2022/01/11 09:06:33;;;;;;;12.63;5.10;;;;;;;8.17;46.33;103083.78;4940742;29;20084;-66
2022/01/11 09:08:59;;;;;;;14.70;6.72;;;;;;;8.27;46.62;103094.97;4957672;29;20035;-66
2022/01/11 09:11:24;;;;;;;18.67;5.55;;;;;;;8.35;46.92;103099.13;4957890;29;20023;-66
2022/01/11 09:13:49;;;;;;;10.98;5.13;;;;;;;8.44;46.21;103104.13;4957515;29;20031;-66
2022/01/11 09:16:17;;;;;;;12.77;5.28;;;;;;;8.50;45.91;103103.00;4957806;29;20044;-67
2022/01/11 09:18:43;;;;;;;12.18;5.13;;;;;;;8.56;45.35;103103.66;4958091;29;20061;-66
2022/01/11 09:21:08;;;;;;;9.52;4.45;;;;;;;8.62;45.88;103098.06;4957347;29;20388;-66
2022/01/11 09:23:35;;;;;;;13.68;5.82;;;;;;;8.68;46.48;103097.78;4940214;29;20031;-66
2022/01/11 09:26:00;;;;;;;11.02;4.97;;;;;;;8.73;45.96;103101.19;4957625;29;20023;-67
2022/01/11 09:28:26;;;;;;;12.13;4.90;;;;;;;8.70;45.89;103090.63;4957288;29;20078;-67
2022/01/11 09:30:51;;;;;;;10.32;5.35;;;;;;;8.69;46.13;103101.34;4957164;29;20547;-66
2022/01/11 09:33:18;;;;;;;14.77;5.13;;;;;;;8.67;45.94;103106.75;4940568;29;20034;-67
2022/01/11 09:35:43;;;;;;;14.40;6.25;;;;;;;8.68;46.21;103107.66;4957016;29;20086;-66
2022/01/11 09:38:09;;;;;;;13.27;5.28;;;;;;;8.70;46.12;103114.66;4940089;29;20035;-66
2022/01/11 09:40:34;;;;;;;11.20;5.55;;;;;;;8.70;46.21;103112.00;4957258;29;20388;-66
2022/01/11 09:43:00;;;;;;;12.70;4.90;;;;;;;8.74;46.08;103112.72;4939763;29;20031;-66
2022/01/11 09:45:25;;;;;;;8.90;4.63;;;;;;;8.79;45.87;103106.25;4939945;28;20038;-67
2022/01/11 09:47:50;;;;;;;12.75;5.97;;;;;;;8.86;46.03;103114.03;4956787;29;20045;-66
2022/01/11 09:50:17;;;;;;;10.48;4.70;;;;;;;8.92;46.81;103124.47;4956903;29;20033;-65
2022/01/11 09:52:42;;;;;;;13.00;5.47;;;;;;;9.04;45.88;103121.31;4956730;29;20130;-67
2022/01/11 09:55:11;;;;;;;11.60;4.97;;;;;;;9.13;46.32;103120.91;4956867;29;20122;-67
2022/01/11 09:57:37;;;;;;;10.77;4.93;;;;;;;9.21;46.41;103124.16;4940069;29;20037;-66
2022/01/11 10:00:06;;;;;;;12.70;4.88;;;;;;;9.34;45.98;103125.38;4956976;29;20050;-66
2022/01/11 10:02:31;;;;;;;11.13;5.43;;;;;;;9.51;46.05;103125.53;4957169;29;20027;-66
2022/01/11 10:05:04;;;;;;;10.00;4.85;;;;;;;9.62;46.49;103125.06;4956983;29;20106;-66
2022/01/11 10:07:31;;;;;;;12.52;5.75;;;;;;;9.76;45.62;103128.88;4956486;29;20042;-66
2022/01/11 10:09:57;;;;;;;17.70;5.38;;;;;;;10.05;45.92;103124.03;4956984;29;20027;-66
2022/01/11 10:12:22;;;;;;;13.98;5.47;;;;;;;10.29;45.77;103128.28;4956934;29;20432;-66
2022/01/11 10:14:56;;;;;;;11.07;5.10;;;;;;;10.49;45.90;103130.94;4955865;28;20490;-66
2022/01/11 10:17:24;;;;;;;10.90;5.28;;;;;;;10.64;45.48;103123.94;4956745;29;20031;-66
2022/01/11 10:20:00;;;;;;;13.13;5.97;;;;;;;10.87;45.71;103115.66;4939003;29;20118;-67
2022/01/11 10:22:26;;;;;;;12.68;5.28;;;;;;;11.25;45.02;103128.03;4956520;29;20023;-67
2022/01/11 10:24:53;;;;;;;9.65;5.63;;;;;;;11.43;44.60;103120.88;4956356;29;20045;-66
2022/01/11 10:27:28;;;;;;;9.95;5.55;;;;;;;11.75;45.05;103117.47;4956242;29;20439;-67
2022/01/11 10:30:15;;;;;;;11.63;5.88;;;;;;;12.22;44.56;103106.84;4956651;29;20020;-67
2022/01/11 10:32:45;;;;;;;8.30;5.03;;;;;;;12.48;44.50;103118.84;4955863;29;20057;-66
2022/01/11 10:35:10;;;;;;;9.13;5.57;;;;;;;12.69;44.27;103123.88;4956119;29;20030;-67
2022/01/11 10:37:40;;;;;;;9.55;5.00;;;;;;;12.90;43.30;103116.41;4956341;29;20027;-67
2022/01/11 10:40:10;;;;;;;10.13;4.95;;;;;;;13.07;44.39;103113.63;4956044;29;20047;-67
2022/01/11 10:42:49;;;;;;;8.80;5.00;;;;;;;13.35;42.89;103113.75;4956079;29;20464;-67
2022/01/11 10:45:17;;;;;;;11.45;5.18;;;;;;;13.71;42.37;103115.19;4955925;28;20031;-67
2022/01/11 10:47:47;;;;;;;8.88;5.32;;;;;;;14.21;42.73;103115.63;4955948;29;20042;-67
2022/01/11 10:50:18;;;;;;;11.43;5.18;;;;;;;14.56;41.47;103114.28;4955517;29;20078;-67
2022/01/11 10:52:45;;;;;;;10.93;5.93;;;;;;;14.92;41.84;103110.16;4955477;29;20121;-67
2022/01/11 10:55:18;;;;;;;12.68;5.55;;;;;;;15.20;42.58;103111.88;4955601;29;20045;-67
2022/01/11 10:57:49;;;;;;;11.73;5.43;;;;;;;15.49;41.86;103117.09;4938654;29;20058;-67
2022/01/11 11:00:35;;;;;;;11.20;5.88;;;;;;;15.70;40.79;103112.03;4938484;29;20027;-67
2022/01/11 11:03:13;;;;;;;13.45;5.30;;;;;;;16.00;41.53;103115.28;4955396;29;20415;-67
2022/01/11 11:05:41;;;;;;;9.13;5.00;;;;;;;16.23;41.12;103110.94;4955521;29;20023;-67
2022/01/11 11:08:10;;;;;;;11.15;6.03;;;;;;;16.43;41.58;103106.81;4938373;29;20053;-66
2022/01/11 11:10:55;;;;;;;8.20;4.82;;;;;;;16.58;39.85;103108.44;4955888;29;20106;-67
2022/01/11 11:13:27;;;;;;;11.30;5.65;;;;;;;16.78;39.59;103108.69;4955683;29;20023;-68
2022/01/11 11:15:57;;;;;;;8.98;5.30;;;;;;;16.97;40.74;103108.19;4955655;29;20031;-67
2022/01/11 11:18:33;;;;;;;11.10;6.43;;;;;;;17.17;40.63;103118.38;4955604;29;20035;-67
2022/01/11 11:21:32;;;;;;;15.68;5.40;;;;;;;17.37;39.04;103116.84;4938941;29;20062;-66
2022/01/11 11:24:10;;;;;;;9.38;5.00;;;;;;;17.46;40.31;103121.59;4955506;29;20034;-67